» Metar & Tafor

26 Maret 2019
SPECI
Pukul :
Isi :

SPECI WAGI 260712Z 12003KT 5000 -RA FEW012CB BKN012 31/26 Q1009 RMK CB TO W AND E=


30 November 2018
METAR
Pukul : 09.30 UTC
Isi :
METAR WAGI 260930Z 32005KT 6000 TS FEW012CB BKN012 26/24 Q1010 RMK CB TO N=

30 Agustus 2018
TAFOR
Pukul : 06 - 18 UTC
Isi :

TAF WAGI 260500Z 2606/2618 0706KT 9999 BKN012 TEMPO 2606/2610 21006KT 4000 -TSRA FEW010CB BKN011=


Hal: << First | < Prev | 1 | Next > | Last >>